Ness City, Kansas
Current Conditions -  °F | °C
As of 5:15 AM on Sunday 21 Dec 2014 (Local Time) from KHYS Reporting Station
Overcast Overcast  
Wind Chill: 23°   Ceiling: 200
Heat Index: 32°   Visibility: 0.5mi
Dew Point: 27°   Wind: 12mph
Humidity: 80%   Direction: 210°SSW
Pressure: 29.92"   Gusts: NA
Location:  38.45°N, 99.91°W
Report Text: KHYS 211115Z AUTO 21010KT 1/2SM OVC002 00/M03 A2992 RMK AO1
Loading
Personal Weather Stations






























Interactive Weather Map New forecast layout! Learn more

10-Day Weather Forecast

Advertisements
Track Severe Weather on mobile